sensor_id;sensor_type;location;lat;lon;timestamp;pressure;altitude;pressure_sealevel;temperature;humidity
7433;BME280;32233;49.500;7.764;2023-02-13T00:01:11;100442.41;;;3.92;100.00
7433;BME280;32233;49.500;7.764;2023-02-13T00:03:38;100445.16;;;3.78;100.00
7433;BME280;32233;49.500;7.764;2023-02-13T00:06:04;100442.25;;;3.70;100.00
7433;BME280;32233;49.500;7.764;2023-02-13T00:08:31;100434.44;;;3.57;100.00
7433;BME280;32233;49.500;7.764;2023-02-13T00:10:57;100436.94;;;3.71;100.00
7433;BME280;32233;49.500;7.764;2023-02-13T00:13:24;100437.47;;;3.64;100.00
7433;BME280;32233;49.500;7.764;2023-02-13T00:15:59;100442.56;;;3.65;100.00
7433;BME280;32233;49.500;7.764;2023-02-13T00:18:27;100437.97;;;3.69;100.00
7433;BME280;32233;49.500;7.764;2023-02-13T00:20:58;100437.75;;;3.72;100.00
7433;BME280;32233;49.500;7.764;2023-02-13T00:23:25;100437.44;;;3.77;100.00
7433;BME280;32233;49.500;7.764;2023-02-13T00:25:51;100432.88;;;3.67;100.00
7433;BME280;32233;49.500;7.764;2023-02-13T00:28:18;100429.72;;;3.62;100.00
7433;BME280;32233;49.500;7.764;2023-02-13T00:30:44;100429.94;;;3.59;100.00
7433;BME280;32233;49.500;7.764;2023-02-13T00:33:12;100436.94;;;3.59;100.00
7433;BME280;32233;49.500;7.764;2023-02-13T00:35:38;100432.19;;;3.40;100.00
7433;BME280;32233;49.500;7.764;2023-02-13T00:38:05;100433.97;;;3.39;100.00
7433;BME280;32233;49.500;7.764;2023-02-13T00:40:31;100433.16;;;3.63;100.00
7433;BME280;32233;49.500;7.764;2023-02-13T00:42:58;100436.22;;;3.57;100.00
7433;BME280;32233;49.500;7.764;2023-02-13T00:45:25;100434.88;;;3.38;100.00
7433;BME280;32233;49.500;7.764;2023-02-13T00:47:51;100435.75;;;3.39;100.00
7433;BME280;32233;49.500;7.764;2023-02-13T00:50:19;100431.34;;;3.39;100.00
7433;BME280;32233;49.500;7.764;2023-02-13T00:52:45;100431.97;;;3.43;100.00
7433;BME280;32233;49.500;7.764;2023-02-13T00:55:12;100428.31;;;3.33;100.00
7433;BME280;32233;49.500;7.764;2023-02-13T00:57:38;100435.19;;;3.34;100.00
7433;BME280;32233;49.500;7.764;2023-02-13T01:00:05;100427.03;;;3.38;100.00
7433;BME280;32233;49.500;7.764;2023-02-13T01:02:32;100428.19;;;3.34;100.00
7433;BME280;32233;49.500;7.764;2023-02-13T01:05:01;100434.06;;;3.25;100.00
7433;BME280;32233;49.500;7.764;2023-02-13T01:07:28;100430.00;;;3.21;100.00
7433;BME280;32233;49.500;7.764;2023-02-13T01:09:55;100433.44;;;3.09;100.00
7433;BME280;32233;49.500;7.764;2023-02-13T01:12:21;100431.66;;;3.09;100.00
7433;BME280;32233;49.500;7.764;2023-02-13T01:14:48;100433.34;;;2.97;100.00
7433;BME280;32233;49.500;7.764;2023-02-13T01:17:16;100436.06;;;3.09;100.00
7433;BME280;32233;49.500;7.764;2023-02-13T01:19:42;100439.19;;;3.14;100.00
7433;BME280;32233;49.500;7.764;2023-02-13T01:22:09;100435.34;;;2.94;100.00
7433;BME280;32233;49.500;7.764;2023-02-13T01:24:35;100445.88;;;3.18;100.00
7433;BME280;32233;49.500;7.764;2023-02-13T01:27:02;100446.50;;;2.96;100.00
7433;BME280;32233;49.500;7.764;2023-02-13T01:29:29;100439.50;;;2.96;100.00
7433;BME280;32233;49.500;7.764;2023-02-13T01:31:55;100455.28;;;2.82;100.00
7433;BME280;32233;49.500;7.764;2023-02-13T01:34:25;100443.19;;;3.07;100.00
7433;BME280;32233;49.500;7.764;2023-02-13T01:36:51;100444.94;;;3.19;100.00
7433;BME280;32233;49.500;7.764;2023-02-13T01:39:19;100446.72;;;3.06;100.00
7433;BME280;32233;49.500;7.764;2023-02-13T01:41:45;100440.66;;;2.92;100.00
7433;BME280;32233;49.500;7.764;2023-02-13T01:44:44;100440.88;;;3.02;100.00
7433;BME280;32233;49.500;7.764;2023-02-13T01:47:17;100445.16;;;3.03;100.00
7433;BME280;32233;49.500;7.764;2023-02-13T01:49:46;100443.47;;;2.89;100.00
7433;BME280;32233;49.500;7.764;2023-02-13T01:52:15;100444.91;;;2.81;100.00
7433;BME280;32233;49.500;7.764;2023-02-13T01:54:43;100448.28;;;2.83;100.00
7433;BME280;32233;49.500;7.764;2023-02-13T01:57:17;100444.81;;;2.69;100.00
7433;BME280;32233;49.500;7.764;2023-02-13T01:59:52;100433.13;;;2.75;100.00
7433;BME280;32233;49.500;7.764;2023-02-13T02:02:21;100434.56;;;2.66;100.00
7433;BME280;32233;49.500;7.764;2023-02-13T02:04:49;100428.94;;;2.72;100.00
7433;BME280;32233;49.500;7.764;2023-02-13T02:07:23;100429.53;;;2.63;100.00
7433;BME280;32233;49.500;7.764;2023-02-13T02:09:55;100420.19;;;2.73;100.00
7433;BME280;32233;49.500;7.764;2023-02-13T02:12:28;100431.00;;;2.55;100.00
7433;BME280;32233;49.500;7.764;2023-02-13T02:14:59;100428.44;;;2.40;100.00
7433;BME280;32233;49.500;7.764;2023-02-13T02:17:30;100429.84;;;2.19;100.00
7433;BME280;32233;49.500;7.764;2023-02-13T02:20:25;100425.88;;;2.13;100.00
7433;BME280;32233;49.500;7.764;2023-02-13T02:26:24;100420.97;;;2.09;100.00
7433;BME280;32233;49.500;7.764;2023-02-13T02:37:34;100420.84;;;1.83;100.00
7433;BME280;32233;49.500;7.764;2023-02-13T02:42:57;100427.09;;;1.81;100.00
7433;BME280;32233;49.500;7.764;2023-02-13T02:48:29;100421.84;;;1.54;100.00
7433;BME280;32233;49.500;7.764;2023-02-13T02:51:29;100415.31;;;1.46;100.00
7433;BME280;32233;49.500;7.764;2023-02-13T02:54:07;100419.63;;;1.47;100.00
7433;BME280;32233;49.500;7.764;2023-02-13T02:57:02;100420.28;;;1.37;100.00
7433;BME280;32233;49.500;7.764;2023-02-13T02:59:31;100427.63;;;1.44;100.00
7433;BME280;32233;49.500;7.764;2023-02-13T03:02:17;100432.75;;;1.32;100.00
7433;BME280;32233;49.500;7.764;2023-02-13T03:05:03;100439.81;;;1.30;100.00
7433;BME280;32233;49.500;7.764;2023-02-13T03:07:48;100430.41;;;1.13;100.00
7433;BME280;32233;49.500;7.764;2023-02-13T03:10:30;100433.84;;;1.13;100.00
7433;BME280;32233;49.500;7.764;2023-02-13T03:13:45;100437.28;;;1.14;100.00
7433;BME280;32233;49.500;7.764;2023-02-13T03:16:17;100432.75;;;1.17;100.00
7433;BME280;32233;49.500;7.764;2023-02-13T03:19:04;100438.88;;;1.16;100.00
7433;BME280;32233;49.500;7.764;2023-02-13T03:22:04;100434.97;;;1.09;100.00
7433;BME280;32233;49.500;7.764;2023-02-13T03:31:20;100432.38;;;1.09;100.00
7433;BME280;32233;49.500;7.764;2023-02-13T03:34:09;100430.13;;;1.17;100.00
7433;BME280;32233;49.500;7.764;2023-02-13T03:45:10;100429.09;;;0.91;100.00
7433;BME280;32233;49.500;7.764;2023-02-13T03:48:13;100426.13;;;0.83;100.00
7433;BME280;32233;49.500;7.764;2023-02-13T03:51:00;100430.09;;;0.74;100.00
7433;BME280;32233;49.500;7.764;2023-02-13T03:53:30;100437.91;;;0.74;100.00
7433;BME280;32233;49.500;7.764;2023-02-13T03:56:00;100433.47;;;0.91;100.00
7433;BME280;32233;49.500;7.764;2023-02-13T03:58:49;100431.97;;;0.87;100.00
7433;BME280;32233;49.500;7.764;2023-02-13T04:01:36;100426.13;;;0.83;100.00
7433;BME280;32233;49.500;7.764;2023-02-13T04:04:08;100429.44;;;0.85;100.00
7433;BME280;32233;49.500;7.764;2023-02-13T04:09:14;100429.84;;;0.79;100.00
7433;BME280;32233;49.500;7.764;2023-02-13T04:11:52;100433.38;;;0.78;100.00
7433;BME280;32233;49.500;7.764;2023-02-13T04:14:31;100437.25;;;0.85;100.00
7433;BME280;32233;49.500;7.764;2023-02-13T04:17:09;100431.97;;;0.87;100.00
7433;BME280;32233;49.500;7.764;2023-02-13T04:19:39;100438.03;;;0.87;100.00
7433;BME280;32233;49.500;7.764;2023-02-13T04:22:07;100432.72;;;0.89;100.00
7433;BME280;32233;49.500;7.764;2023-02-13T04:24:33;100440.25;;;0.93;100.00
7433;BME280;32233;49.500;7.764;2023-02-13T04:27:00;100439.81;;;1.15;100.00
7433;BME280;32233;49.500;7.764;2023-02-13T04:29:27;100436.47;;;1.28;100.00
7433;BME280;32233;49.500;7.764;2023-02-13T04:31:53;100437.78;;;1.20;100.00
7433;BME280;32233;49.500;7.764;2023-02-13T04:34:20;100442.44;;;1.15;100.00
7433;BME280;32233;49.500;7.764;2023-02-13T04:36:47;100439.78;;;1.01;100.00
7433;BME280;32233;49.500;7.764;2023-02-13T04:39:13;100438.22;;;0.98;100.00
7433;BME280;32233;49.500;7.764;2023-02-13T04:41:40;100439.25;;;0.82;100.00
7433;BME280;32233;49.500;7.764;2023-02-13T04:44:06;100434.66;;;0.71;100.00
7433;BME280;32233;49.500;7.764;2023-02-13T04:46:33;100430.34;;;0.56;100.00
7433;BME280;32233;49.500;7.764;2023-02-13T04:48:59;100429.59;;;0.54;100.00
7433;BME280;32233;49.500;7.764;2023-02-13T04:51:26;100425.06;;;0.57;100.00
7433;BME280;32233;49.500;7.764;2023-02-13T04:53:52;100423.41;;;0.70;100.00
7433;BME280;32233;49.500;7.764;2023-02-13T04:56:19;100419.19;;;0.68;100.00
7433;BME280;32233;49.500;7.764;2023-02-13T04:58:45;100421.59;;;0.57;100.00
7433;BME280;32233;49.500;7.764;2023-02-13T05:01:16;100423.22;;;0.43;100.00
7433;BME280;32233;49.500;7.764;2023-02-13T05:03:43;100428.81;;;0.37;100.00
7433;BME280;32233;49.500;7.764;2023-02-13T05:06:09;100437.09;;;0.28;100.00
7433;BME280;32233;49.500;7.764;2023-02-13T05:08:36;100436.38;;;0.26;100.00
7433;BME280;32233;49.500;7.764;2023-02-13T05:11:03;100440.31;;;0.33;100.00
7433;BME280;32233;49.500;7.764;2023-02-13T05:13:29;100438.75;;;0.15;100.00
7433;BME280;32233;49.500;7.764;2023-02-13T05:15:56;100440.50;;;0.14;100.00
7433;BME280;32233;49.500;7.764;2023-02-13T05:18:23;100436.06;;;0.16;100.00
7433;BME280;32233;49.500;7.764;2023-02-13T05:20:49;100438.53;;;-0.12;100.00
7433;BME280;32233;49.500;7.764;2023-02-13T05:23:36;100433.81;;;-0.06;100.00
7433;BME280;32233;49.500;7.764;2023-02-13T05:26:03;100432.31;;;-0.10;100.00
7433;BME280;32233;49.500;7.764;2023-02-13T05:28:30;100434.16;;;-0.12;100.00
7433;BME280;32233;49.500;7.764;2023-02-13T05:31:15;100435.06;;;-0.13;100.00
7433;BME280;32233;49.500;7.764;2023-02-13T05:33:41;100437.34;;;-0.07;100.00
7433;BME280;32233;49.500;7.764;2023-02-13T05:36:08;100430.38;;;-0.22;100.00
7433;BME280;32233;49.500;7.764;2023-02-13T05:38:34;100436.25;;;-0.34;100.00
7433;BME280;32233;49.500;7.764;2023-02-13T05:41:01;100435.94;;;-0.28;100.00
7433;BME280;32233;49.500;7.764;2023-02-13T05:43:28;100436.91;;;-0.31;100.00
7433;BME280;32233;49.500;7.764;2023-02-13T05:46:06;100432.91;;;-0.36;100.00
7433;BME280;32233;49.500;7.764;2023-02-13T05:48:33;100425.59;;;-0.45;100.00
7433;BME280;32233;49.500;7.764;2023-02-13T05:51:00;100426.09;;;-0.39;100.00
7433;BME280;32233;49.500;7.764;2023-02-13T05:53:26;100422.16;;;-0.46;100.00
7433;BME280;32233;49.500;7.764;2023-02-13T05:55:53;100422.34;;;-0.49;100.00
7433;BME280;32233;49.500;7.764;2023-02-13T05:58:20;100422.91;;;-0.60;100.00
7433;BME280;32233;49.500;7.764;2023-02-13T06:00:47;100421.81;;;-0.56;100.00
7433;BME280;32233;49.500;7.764;2023-02-13T06:03:13;100426.44;;;-0.61;100.00
7433;BME280;32233;49.500;7.764;2023-02-13T06:05:40;100433.63;;;-0.50;100.00
7433;BME280;32233;49.500;7.764;2023-02-13T06:08:07;100426.50;;;-0.62;100.00
7433;BME280;32233;49.500;7.764;2023-02-13T06:10:33;100427.75;;;-0.69;100.00
7433;BME280;32233;49.500;7.764;2023-02-13T06:13:00;100430.53;;;-0.57;100.00
7433;BME280;32233;49.500;7.764;2023-02-13T06:15:27;100429.78;;;-0.59;100.00
7433;BME280;32233;49.500;7.764;2023-02-13T06:17:53;100427.56;;;-0.66;100.00
7433;BME280;32233;49.500;7.764;2023-02-13T06:20:20;100433.69;;;-0.67;100.00
7433;BME280;32233;49.500;7.764;2023-02-13T06:22:48;100434.13;;;-0.59;100.00
7433;BME280;32233;49.500;7.764;2023-02-13T06:25:16;100436.78;;;-0.77;100.00
7433;BME280;32233;49.500;7.764;2023-02-13T06:27:43;100435.22;;;-0.96;100.00
7433;BME280;32233;49.500;7.764;2023-02-13T06:30:09;100432.50;;;-1.11;100.00
7433;BME280;32233;49.500;7.764;2023-02-13T06:32:36;100441.59;;;-1.02;100.00
7433;BME280;32233;49.500;7.764;2023-02-13T06:35:04;100441.34;;;-1.15;100.00
7433;BME280;32233;49.500;7.764;2023-02-13T06:37:31;100448.94;;;-1.10;100.00
7433;BME280;32233;49.500;7.764;2023-02-13T06:39:58;100439.69;;;-1.16;100.00
7433;BME280;32233;49.500;7.764;2023-02-13T06:42:24;100449.94;;;-1.30;100.00
7433;BME280;32233;49.500;7.764;2023-02-13T06:44:51;100449.97;;;-1.32;100.00
7433;BME280;32233;49.500;7.764;2023-02-13T06:47:17;100449.47;;;-1.21;100.00
7433;BME280;32233;49.500;7.764;2023-02-13T06:49:44;100450.00;;;-1.14;100.00
7433;BME280;32233;49.500;7.764;2023-02-13T06:52:10;100455.03;;;-1.29;100.00
7433;BME280;32233;49.500;7.764;2023-02-13T06:54:37;100459.97;;;-1.24;100.00
7433;BME280;32233;49.500;7.764;2023-02-13T06:57:14;100456.47;;;-1.23;100.00
7433;BME280;32233;49.500;7.764;2023-02-13T06:59:42;100452.25;;;-1.08;100.00
7433;BME280;32233;49.500;7.764;2023-02-13T07:02:10;100451.28;;;-1.06;100.00
7433;BME280;32233;49.500;7.764;2023-02-13T07:04:37;100452.91;;;-0.87;100.00
7433;BME280;32233;49.500;7.764;2023-02-13T07:07:04;100450.25;;;-1.03;100.00
7433;BME280;32233;49.500;7.764;2023-02-13T07:09:31;100457.06;;;-1.01;100.00
7433;BME280;32233;49.500;7.764;2023-02-13T07:12:02;100455.53;;;-1.05;100.00
7433;BME280;32233;49.500;7.764;2023-02-13T07:14:29;100451.97;;;-1.02;100.00
7433;BME280;32233;49.500;7.764;2023-02-13T07:16:57;100452.25;;;-1.08;100.00
7433;BME280;32233;49.500;7.764;2023-02-13T07:19:24;100460.88;;;-1.08;100.00
7433;BME280;32233;49.500;7.764;2023-02-13T07:21:51;100458.50;;;-0.95;100.00
7433;BME280;32233;49.500;7.764;2023-02-13T07:24:19;100455.59;;;-0.89;100.00
7433;BME280;32233;49.500;7.764;2023-02-13T07:27:11;100460.00;;;-0.58;100.00
7433;BME280;32233;49.500;7.764;2023-02-13T07:29:38;100466.06;;;-0.41;100.00
7433;BME280;32233;49.500;7.764;2023-02-13T07:32:04;100470.84;;;-0.65;100.00
7433;BME280;32233;49.500;7.764;2023-02-13T07:34:32;100469.81;;;-0.63;100.00
7433;BME280;32233;49.500;7.764;2023-02-13T07:36:58;100471.66;;;-0.65;100.00
7433;BME280;32233;49.500;7.764;2023-02-13T07:39:25;100472.25;;;-0.60;100.00
7433;BME280;32233;49.500;7.764;2023-02-13T07:41:51;100471.03;;;-0.21;100.00
7433;BME280;32233;49.500;7.764;2023-02-13T07:44:24;100463.84;;;-0.32;100.00
7433;BME280;32233;49.500;7.764;2023-02-13T07:46:50;100469.94;;;-0.17;100.00
7433;BME280;32233;49.500;7.764;2023-02-13T07:49:17;100474.72;;;0.22;100.00
7433;BME280;32233;49.500;7.764;2023-02-13T07:51:43;100473.84;;;-0.08;100.00
7433;BME280;32233;49.500;7.764;2023-02-13T07:54:10;100474.00;;;0.05;100.00
7433;BME280;32233;49.500;7.764;2023-02-13T07:56:36;100479.25;;;0.19;100.00
7433;BME280;32233;49.500;7.764;2023-02-13T07:59:03;100464.78;;;0.89;100.00
7433;BME280;32233;49.500;7.764;2023-02-13T08:01:32;100464.00;;;0.73;100.00
7433;BME280;32233;49.500;7.764;2023-02-13T08:03:58;100464.78;;;0.89;100.00
7433;BME280;32233;49.500;7.764;2023-02-13T08:06:25;100461.47;;;1.02;100.00
7433;BME280;32233;49.500;7.764;2023-02-13T08:08:51;100463.63;;;1.38;100.00
7433;BME280;32233;49.500;7.764;2023-02-13T08:11:39;100465.88;;;1.44;100.00
7433;BME280;32233;49.500;7.764;2023-02-13T08:14:22;100465.13;;;1.42;100.00
7433;BME280;32233;49.500;7.764;2023-02-13T08:16:50;100461.75;;;1.68;100.00
7433;BME280;32233;49.500;7.764;2023-02-13T08:19:17;100459.72;;;1.59;100.00
7433;BME280;32233;49.500;7.764;2023-02-13T08:21:44;100460.63;;;1.72;100.00
7433;BME280;32233;49.500;7.764;2023-02-13T08:24:11;100460.22;;;1.93;100.00
7433;BME280;32233;49.500;7.764;2023-02-13T08:26:39;100460.44;;;2.17;100.00
7433;BME280;32233;49.500;7.764;2023-02-13T08:29:05;100463.25;;;2.41;100.00
7433;BME280;32233;49.500;7.764;2023-02-13T08:31:32;100457.28;;;2.39;100.00
7433;BME280;32233;49.500;7.764;2023-02-13T08:33:59;100457.94;;;2.55;100.00
7433;BME280;32233;49.500;7.764;2023-02-13T08:36:26;100458.63;;;2.97;100.00
7433;BME280;32233;49.500;7.764;2023-02-13T08:38:52;100454.66;;;3.17;100.00
7433;BME280;32233;49.500;7.764;2023-02-13T08:41:19;100458.16;;;3.67;100.00
7433;BME280;32233;49.500;7.764;2023-02-13T08:43:49;100447.03;;;4.37;100.00
7433;BME280;32233;49.500;7.764;2023-02-13T08:46:16;100452.13;;;4.62;100.00
7433;BME280;32233;49.500;7.764;2023-02-13T08:48:43;100452.09;;;4.51;100.00
7433;BME280;32233;49.500;7.764;2023-02-13T08:51:11;100450.28;;;4.87;99.58
7433;BME280;32233;49.500;7.764;2023-02-13T08:53:39;100446.88;;;5.42;95.69
7433;BME280;32233;49.500;7.764;2023-02-13T08:56:05;100448.25;;;6.14;90.51
7433;BME280;32233;49.500;7.764;2023-02-13T08:58:32;100451.16;;;6.64;86.69
7433;BME280;32233;49.500;7.764;2023-02-13T09:00:59;100444.00;;;6.66;86.11
7433;BME280;32233;49.500;7.764;2023-02-13T09:03:25;100447.13;;;6.81;84.49
7433;BME280;32233;49.500;7.764;2023-02-13T09:05:52;100446.28;;;6.27;87.68
7433;BME280;32233;49.500;7.764;2023-02-13T09:08:18;100445.94;;;5.32;95.50
7433;BME280;32233;49.500;7.764;2023-02-13T09:10:45;100447.00;;;5.18;97.50
7433;BME280;32233;49.500;7.764;2023-02-13T09:13:11;100443.91;;;5.02;97.40
7433;BME280;32233;49.500;7.764;2023-02-13T09:15:38;100441.28;;;5.02;99.21
7433;BME280;32233;49.500;7.764;2023-02-13T09:18:08;100442.88;;;4.69;100.00
7433;BME280;32233;49.500;7.764;2023-02-13T09:20:35;100439.81;;;4.52;100.00
7433;BME280;32233;49.500;7.764;2023-02-13T09:23:02;100440.25;;;4.69;100.00
7433;BME280;32233;49.500;7.764;2023-02-13T09:25:28;100437.28;;;4.74;100.00
7433;BME280;32233;49.500;7.764;2023-02-13T09:27:55;100438.97;;;4.97;100.00
7433;BME280;32233;49.500;7.764;2023-02-13T09:30:21;100441.03;;;4.94;100.00
7433;BME280;32233;49.500;7.764;2023-02-13T09:32:52;100447.50;;;4.77;100.00
7433;BME280;32233;49.500;7.764;2023-02-13T09:35:19;100441.94;;;4.82;100.00
7433;BME280;32233;49.500;7.764;2023-02-13T09:37:46;100446.06;;;4.73;100.00
7433;BME280;32233;49.500;7.764;2023-02-13T09:42:46;100443.06;;;5.24;100.00
7433;BME280;32233;49.500;7.764;2023-02-13T09:45:16;100445.19;;;5.86;96.03
7433;BME280;32233;49.500;7.764;2023-02-13T09:47:46;100438.53;;;6.79;89.28
7433;BME280;32233;49.500;7.764;2023-02-13T09:50:16;100439.25;;;8.52;79.39
7433;BME280;32233;49.500;7.764;2023-02-13T09:52:45;100438.41;;;9.64;72.78
7433;BME280;32233;49.500;7.764;2023-02-13T09:55:15;100443.53;;;10.11;68.28
7433;BME280;32233;49.500;7.764;2023-02-13T09:57:58;100440.06;;;9.65;69.39
7433;BME280;32233;49.500;7.764;2023-02-13T10:00:53;100455.75;;;10.40;67.02
7433;BME280;32233;49.500;7.764;2023-02-13T10:03:30;100448.44;;;9.88;68.17
7433;BME280;32233;49.500;7.764;2023-02-13T10:06:07;100451.28;;;10.76;63.98
7433;BME280;32233;49.500;7.764;2023-02-13T10:09:00;100450.63;;;10.38;64.92
7433;BME280;32233;49.500;7.764;2023-02-13T10:14:17;100448.50;;;10.78;64.05
7433;BME280;32233;49.500;7.764;2023-02-13T10:17:01;100444.66;;;11.58;62.18
7433;BME280;32233;49.500;7.764;2023-02-13T10:19:40;100454.09;;;10.57;63.75
7433;BME280;32233;49.500;7.764;2023-02-13T10:22:20;100444.00;;;11.30;61.27
7433;BME280;32233;49.500;7.764;2023-02-13T10:25:11;100435.94;;;11.32;61.22
7433;BME280;32233;49.500;7.764;2023-02-13T10:28:03;100436.69;;;10.90;62.84
7433;BME280;32233;49.500;7.764;2023-02-13T10:30:38;100432.81;;;11.79;59.96
7433;BME280;32233;49.500;7.764;2023-02-13T10:33:16;100433.63;;;12.13;58.58
7433;BME280;32233;49.500;7.764;2023-02-13T10:38:22;100435.09;;;11.65;60.11
7433;BME280;32233;49.500;7.764;2023-02-13T10:44:19;100426.03;;;11.42;61.12
7433;BME280;32233;49.500;7.764;2023-02-13T10:46:52;100429.25;;;11.20;61.68
7433;BME280;32233;49.500;7.764;2023-02-13T10:52:11;100418.06;;;12.59;56.81
7433;BME280;32233;49.500;7.764;2023-02-13T10:57:23;100415.19;;;13.66;54.21
7433;BME280;32233;49.500;7.764;2023-02-13T11:02:28;100403.25;;;13.61;52.56
7433;BME280;32233;49.500;7.764;2023-02-13T11:05:01;100405.47;;;13.50;52.66
7433;BME280;32233;49.500;7.764;2023-02-13T11:07:33;100398.56;;;13.32;53.29
7433;BME280;32233;49.500;7.764;2023-02-13T11:10:07;100396.94;;;13.07;53.69
7433;BME280;32233;49.500;7.764;2023-02-13T11:12:38;100401.69;;;11.81;56.19
7433;BME280;32233;49.500;7.764;2023-02-13T11:15:08;100397.50;;;12.86;53.45
7433;BME280;32233;49.500;7.764;2023-02-13T11:17:45;100396.31;;;12.72;54.42
7433;BME280;32233;49.500;7.764;2023-02-13T11:20:38;100393.28;;;13.08;52.51
7433;BME280;32233;49.500;7.764;2023-02-13T11:23:32;100399.00;;;12.64;54.86
7433;BME280;32233;49.500;7.764;2023-02-13T11:26:14;100397.81;;;12.83;53.23
7433;BME280;32233;49.500;7.764;2023-02-13T11:28:47;100392.53;;;12.67;53.94
7433;BME280;32233;49.500;7.764;2023-02-13T11:31:29;100377.44;;;12.43;54.99
7433;BME280;32233;49.500;7.764;2023-02-13T11:33:58;100385.22;;;12.20;55.32
7433;BME280;32233;49.500;7.764;2023-02-13T11:36:29;100385.56;;;12.74;52.79
7433;BME280;32233;49.500;7.764;2023-02-13T11:39:16;100382.81;;;14.16;49.83
7433;BME280;32233;49.500;7.764;2023-02-13T11:41:44;100387.44;;;13.29;51.03
7433;BME280;32233;49.500;7.764;2023-02-13T11:46:51;100378.31;;;14.40;48.92
7433;BME280;32233;49.500;7.764;2023-02-13T11:49:21;100376.84;;;14.60;48.27
7433;BME280;32233;49.500;7.764;2023-02-13T11:51:49;100373.28;;;14.68;47.02
7433;BME280;32233;49.500;7.764;2023-02-13T11:59:43;100377.13;;;13.34;50.16
7433;BME280;32233;49.500;7.764;2023-02-13T12:02:44;100373.81;;;13.32;51.17
7433;BME280;32233;49.500;7.764;2023-02-13T12:05:21;100369.03;;;13.27;50.72
7433;BME280;32233;49.500;7.764;2023-02-13T12:07:49;100366.88;;;13.31;51.11
7433;BME280;32233;49.500;7.764;2023-02-13T12:10:25;100370.59;;;14.30;48.18
7433;BME280;32233;49.500;7.764;2023-02-13T12:12:58;100361.00;;;14.67;46.76
7433;BME280;32233;49.500;7.764;2023-02-13T12:15:29;100356.53;;;15.11;45.58
7433;BME280;32233;49.500;7.764;2023-02-13T12:18:12;100353.16;;;15.54;45.12
7433;BME280;32233;49.500;7.764;2023-02-13T12:26:12;100349.16;;;15.43;44.92
7433;BME280;32233;49.500;7.764;2023-02-13T12:37:18;100349.97;;;13.86;48.71
7433;BME280;32233;49.500;7.764;2023-02-13T12:45:12;100338.63;;;12.82;50.33
7433;BME280;32233;49.500;7.764;2023-02-13T12:48:00;100343.59;;;14.18;47.40
7433;BME280;32233;49.500;7.764;2023-02-13T12:50:35;100338.66;;;14.30;47.24
7433;BME280;32233;49.500;7.764;2023-02-13T12:53:25;100332.31;;;13.62;48.21
7433;BME280;32233;49.500;7.764;2023-02-13T12:56:22;100336.38;;;13.50;48.85
7433;BME280;32233;49.500;7.764;2023-02-13T12:59:27;100330.28;;;13.41;49.61
7433;BME280;32233;49.500;7.764;2023-02-13T13:07:45;100327.50;;;13.66;47.59
7433;BME280;32233;49.500;7.764;2023-02-13T13:10:40;100324.13;;;12.93;49.50
7433;BME280;32233;49.500;7.764;2023-02-13T13:21:32;100318.28;;;13.06;49.73
7433;BME280;32233;49.500;7.764;2023-02-13T13:26:47;100317.28;;;13.77;47.38
7433;BME280;32233;49.500;7.764;2023-02-13T13:29:20;100313.38;;;14.11;46.49
7433;BME280;32233;49.500;7.764;2023-02-13T13:31:55;100304.78;;;14.09;47.31
7433;BME280;32233;49.500;7.764;2023-02-13T13:34:24;100301.63;;;14.43;45.91
7433;BME280;32233;49.500;7.764;2023-02-13T13:40:00;100303.03;;;13.47;47.95
7433;BME280;32233;49.500;7.764;2023-02-13T13:42:46;100306.03;;;12.41;49.99
7433;BME280;32233;49.500;7.764;2023-02-13T13:46:27;100307.97;;;11.82;51.26
7433;BME280;32233;49.500;7.764;2023-02-13T13:48:57;100311.34;;;10.65;55.14
7433;BME280;32233;49.500;7.764;2023-02-13T13:51:26;100310.81;;;10.17;56.95
7433;BME280;32233;49.500;7.764;2023-02-13T14:07:38;100308.31;;;10.16;59.51
7433;BME280;32233;49.500;7.764;2023-02-13T14:12:58;100300.78;;;10.39;59.45
7433;BME280;32233;49.500;7.764;2023-02-13T14:18:22;100301.66;;;10.74;59.95
7433;BME280;32233;49.500;7.764;2023-02-13T14:20:54;100300.09;;;10.19;59.34
7433;BME280;32233;49.500;7.764;2023-02-13T14:23:46;100294.97;;;10.00;59.86
7433;BME280;32233;49.500;7.764;2023-02-13T14:28:54;100293.47;;;9.79;60.56
7433;BME280;32233;49.500;7.764;2023-02-13T14:31:25;100297.25;;;9.77;59.84
7433;BME280;32233;49.500;7.764;2023-02-13T14:33:55;100299.28;;;9.65;60.54
7433;BME280;32233;49.500;7.764;2023-02-13T14:36:30;100288.19;;;9.79;58.67
7433;BME280;32233;49.500;7.764;2023-02-13T14:39:21;100279.00;;;9.65;59.96
7433;BME280;32233;49.500;7.764;2023-02-13T14:44:34;100282.25;;;9.59;61.47
7433;BME280;32233;49.500;7.764;2023-02-13T14:47:16;100275.53;;;9.65;60.94
7433;BME280;32233;49.500;7.764;2023-02-13T14:49:46;100276.56;;;9.54;61.45
7433;BME280;32233;49.500;7.764;2023-02-13T14:52:19;100273.81;;;9.56;60.58
7433;BME280;32233;49.500;7.764;2023-02-13T14:54:57;100279.69;;;9.67;59.41
7433;BME280;32233;49.500;7.764;2023-02-13T14:57:29;100280.50;;;9.86;57.39
7433;BME280;32233;49.500;7.764;2023-02-13T15:00:02;100272.66;;;9.76;57.79
7433;BME280;32233;49.500;7.764;2023-02-13T15:02:32;100277.69;;;9.87;57.33
7433;BME280;32233;49.500;7.764;2023-02-13T15:05:06;100272.88;;;9.83;57.52
7433;BME280;32233;49.500;7.764;2023-02-13T15:08:15;100275.16;;;9.60;59.27
7433;BME280;32233;49.500;7.764;2023-02-13T15:13:19;100279.81;;;9.48;58.08
7433;BME280;32233;49.500;7.764;2023-02-13T15:15:52;100268.53;;;9.56;58.27
7433;BME280;32233;49.500;7.764;2023-02-13T15:18:26;100274.38;;;9.50;58.23
7433;BME280;32233;49.500;7.764;2023-02-13T15:20:56;100272.00;;;9.56;57.71
7433;BME280;32233;49.500;7.764;2023-02-13T15:23:28;100272.66;;;9.58;58.14
7433;BME280;32233;49.500;7.764;2023-02-13T15:26:01;100261.88;;;9.52;59.05
7433;BME280;32233;49.500;7.764;2023-02-13T15:28:29;100265.75;;;9.30;59.14
7433;BME280;32233;49.500;7.764;2023-02-13T15:33:33;100265.84;;;9.20;59.71
7433;BME280;32233;49.500;7.764;2023-02-13T15:36:05;100266.81;;;9.19;59.76
7433;BME280;32233;49.500;7.764;2023-02-13T15:38:33;100262.75;;;9.25;59.77